createdAt,value
2022-10-31T00:01:35.031Z,6.78
2022-10-31T00:04:01.981Z,6.18
2022-10-31T00:06:29.156Z,6.10
2022-10-31T00:08:58.579Z,6.47
2022-10-31T00:11:25.775Z,6.85
2022-10-31T00:13:59.575Z,7.05
2022-10-31T00:16:29.026Z,6.65
2022-10-31T00:18:58.440Z,6.63
2022-10-31T00:21:26.163Z,6.57
2022-10-31T00:23:55.329Z,6.72
2022-10-31T00:26:24.720Z,6.40
2022-10-31T00:28:51.998Z,6.53
2022-10-31T00:31:21.261Z,6.50
2022-10-31T00:33:50.650Z,6.28
2022-10-31T00:36:19.235Z,6.50
2022-10-31T00:38:47.238Z,6.68
2022-10-31T00:41:18.678Z,6.55
2022-10-31T00:43:45.683Z,7.32
2022-10-31T00:46:15.792Z,7.00
2022-10-31T00:48:43.322Z,6.80
2022-10-31T00:51:11.045Z,6.75
2022-10-31T00:53:37.735Z,7.03
2022-10-31T00:56:07.039Z,6.60
2022-10-31T00:58:33.730Z,6.50
2022-10-31T01:01:00.458Z,6.60
2022-10-31T01:03:29.479Z,6.93
2022-10-31T01:05:59.147Z,7.45
2022-10-31T01:08:26.531Z,7.50
2022-10-31T01:11:01.484Z,6.88
2022-10-31T01:13:28.456Z,7.53
2022-10-31T01:15:57.028Z,7.25
2022-10-31T01:18:23.907Z,7.38
2022-10-31T01:21:06.141Z,7.65
2022-10-31T01:23:35.615Z,6.80
2022-10-31T01:26:10.409Z,6.95
2022-10-31T01:28:44.460Z,7.63
2022-10-31T01:31:11.574Z,7.20
2022-10-31T01:33:38.660Z,7.03
2022-10-31T01:36:26.284Z,7.25
2022-10-31T01:38:54.762Z,7.55
2022-10-31T01:41:24.297Z,7.35
2022-10-31T01:43:59.888Z,7.30
2022-10-31T01:48:56.768Z,7.70
2022-10-31T01:51:31.523Z,7.30
2022-10-31T01:54:05.556Z,7.32
2022-10-31T01:56:36.299Z,7.80
2022-10-31T01:59:06.113Z,7.13
2022-10-31T02:01:32.836Z,7.43
2022-10-31T02:04:01.809Z,6.93
2022-10-31T02:06:42.250Z,7.13
2022-10-31T02:09:09.052Z,7.28
2022-10-31T02:11:38.223Z,7.93
2022-10-31T02:14:09.520Z,7.53
2022-10-31T02:16:38.879Z,7.35
2022-10-31T02:19:11.792Z,7.43
2022-10-31T02:22:00.413Z,7.25
2022-10-31T02:24:29.860Z,7.53
2022-10-31T02:27:14.424Z,6.95
2022-10-31T02:30:08.155Z,6.97
2022-10-31T02:32:52.694Z,7.47
2022-10-31T02:35:37.955Z,7.00
2022-10-31T02:38:19.879Z,7.13
2022-10-31T02:41:15.928Z,6.60
2022-10-31T02:43:54.592Z,7.80
2022-10-31T02:46:37.584Z,7.18
2022-10-31T02:49:12.595Z,7.43
2022-10-31T02:51:44.379Z,8.45
2022-10-31T02:54:24.073Z,6.93
2022-10-31T02:56:53.676Z,6.82
2022-10-31T02:59:20.858Z,7.03
2022-10-31T03:01:59.059Z,7.80
2022-10-31T03:04:59.113Z,7.18
2022-10-31T03:07:40.241Z,7.10
2022-10-31T03:10:37.475Z,7.20
2022-10-31T03:13:15.231Z,7.47
2022-10-31T03:15:45.854Z,7.40
2022-10-31T03:18:30.985Z,7.13
2022-10-31T03:21:06.559Z,7.20
2022-10-31T03:23:35.242Z,7.38
2022-10-31T03:26:07.938Z,7.63
2022-10-31T03:28:51.054Z,7.80
2022-10-31T03:31:22.516Z,7.90
2022-10-31T03:33:51.895Z,7.50
2022-10-31T03:36:19.855Z,7.40
2022-10-31T03:38:48.128Z,7.30
2022-10-31T03:41:24.671Z,6.97
2022-10-31T03:44:00.834Z,6.97
2022-10-31T03:46:28.373Z,7.50
2022-10-31T03:48:55.331Z,7.90
2022-10-31T03:51:45.012Z,7.10
2022-10-31T03:54:23.872Z,7.10
2022-10-31T03:57:07.826Z,7.20
2022-10-31T03:59:38.900Z,7.70
2022-10-31T04:02:11.728Z,7.55
2022-10-31T04:04:41.450Z,7.43
2022-10-31T04:07:12.557Z,7.28
2022-10-31T04:09:46.370Z,7.38
2022-10-31T04:12:16.485Z,7.47
2022-10-31T04:14:48.756Z,7.43
2022-10-31T04:17:19.446Z,7.25
2022-10-31T04:19:46.170Z,7.40
2022-10-31T04:22:12.970Z,6.88
2022-10-31T04:24:42.199Z,8.00
2022-10-31T04:27:09.024Z,6.93
2022-10-31T04:29:35.718Z,6.80
2022-10-31T04:32:04.582Z,7.57
2022-10-31T04:34:31.219Z,7.00
2022-10-31T04:37:00.413Z,7.00
2022-10-31T04:39:29.355Z,6.72
2022-10-31T04:42:00.666Z,7.03
2022-10-31T04:44:29.859Z,6.88
2022-10-31T04:46:56.512Z,7.10
2022-10-31T04:49:25.381Z,6.95
2022-10-31T04:51:52.167Z,6.63
2022-10-31T04:54:23.474Z,7.40
2022-10-31T04:56:52.267Z,6.45
2022-10-31T04:59:18.961Z,7.15
2022-10-31T05:01:48.003Z,7.00
2022-10-31T05:04:14.771Z,7.15
2022-10-31T05:06:41.431Z,7.38
2022-10-31T05:09:08.055Z,6.60
2022-10-31T05:11:34.808Z,6.53
2022-10-31T05:14:01.480Z,7.28
2022-10-31T05:16:31.362Z,7.88
2022-10-31T05:18:58.188Z,7.10
2022-10-31T05:21:24.971Z,6.38
2022-10-31T05:23:51.934Z,7.13
2022-10-31T05:26:18.637Z,6.38
2022-10-31T05:28:45.345Z,6.60
2022-10-31T05:31:16.648Z,6.70
2022-10-31T05:33:43.353Z,6.75
2022-10-31T05:36:12.420Z,6.38
2022-10-31T05:38:39.128Z,6.47
2022-10-31T05:41:08.048Z,7.28
2022-10-31T05:43:34.719Z,6.60
2022-10-31T05:46:01.475Z,7.20
2022-10-31T05:48:30.340Z,7.18
2022-10-31T05:50:57.084Z,6.97
2022-10-31T05:53:23.737Z,6.70
2022-10-31T05:55:52.943Z,6.43
2022-10-31T05:58:19.696Z,6.72
2022-10-31T06:00:47.576Z,7.07
2022-10-31T06:03:14.267Z,7.60
2022-10-31T06:05:49.204Z,7.00
2022-10-31T06:08:19.080Z,7.10
2022-10-31T06:10:48.224Z,6.75
2022-10-31T06:13:19.588Z,7.00
2022-10-31T06:15:48.485Z,6.82
2022-10-31T06:18:22.433Z,6.85
2022-10-31T06:20:49.182Z,7.07
2022-10-31T06:23:15.863Z,7.05
2022-10-31T06:25:50.264Z,7.57
2022-10-31T06:28:17.019Z,7.40
2022-10-31T06:30:46.312Z,7.10
2022-10-31T06:33:13.045Z,6.95
2022-10-31T06:35:45.399Z,7.05
2022-10-31T06:38:12.061Z,7.85
2022-10-31T06:40:38.785Z,7.75
2022-10-31T06:43:12.182Z,6.95
2022-10-31T06:45:44.554Z,6.95
2022-10-31T06:48:18.053Z,7.30
2022-10-31T06:50:47.708Z,7.22
2022-10-31T06:53:16.889Z,7.57
2022-10-31T06:55:43.822Z,6.82
2022-10-31T06:58:11.557Z,7.20
2022-10-31T07:00:45.562Z,7.10
2022-10-31T07:03:16.526Z,7.20
2022-10-31T07:05:48.285Z,6.88
2022-10-31T07:08:17.979Z,6.68
2022-10-31T07:10:55.136Z,7.15
2022-10-31T07:13:28.535Z,7.15
2022-10-31T07:16:00.543Z,6.55
2022-10-31T07:18:29.970Z,7.05
2022-10-31T07:21:01.374Z,6.80
2022-10-31T07:23:28.202Z,6.90
2022-10-31T07:26:00.740Z,6.95
2022-10-31T07:28:28.123Z,7.00
2022-10-31T07:30:58.821Z,7.05
2022-10-31T07:33:29.136Z,7.28
2022-10-31T07:35:55.816Z,6.65
2022-10-31T07:38:24.737Z,7.38
2022-10-31T07:40:53.732Z,7.38
2022-10-31T07:43:23.610Z,7.45
2022-10-31T07:45:54.494Z,7.30
2022-10-31T07:48:21.753Z,7.18
2022-10-31T07:50:48.592Z,7.07
2022-10-31T07:53:16.188Z,7.80
2022-10-31T07:55:46.583Z,7.38
2022-10-31T07:58:15.789Z,6.80
2022-10-31T08:00:44.700Z,7.72
2022-10-31T08:03:14.084Z,7.47
2022-10-31T08:05:45.857Z,6.93
2022-10-31T08:08:15.772Z,7.53
2022-10-31T08:10:42.912Z,7.75
2022-10-31T08:13:12.314Z,7.93
2022-10-31T08:15:42.109Z,7.20
2022-10-31T08:18:15.721Z,7.18
2022-10-31T08:20:43.537Z,7.15
2022-10-31T08:23:11.771Z,8.07
2022-10-31T08:25:42.879Z,7.18
2022-10-31T08:28:12.824Z,7.10
2022-10-31T08:30:40.890Z,7.57
2022-10-31T08:33:11.907Z,7.55
2022-10-31T08:35:38.807Z,7.75
2022-10-31T08:38:05.705Z,7.22
2022-10-31T08:40:33.696Z,8.63
2022-10-31T08:43:13.706Z,7.50
2022-10-31T08:45:41.164Z,7.30
2022-10-31T08:48:11.798Z,7.18
2022-10-31T08:50:39.192Z,7.35
2022-10-31T08:53:17.395Z,7.15
2022-10-31T08:55:47.777Z,7.95
2022-10-31T08:58:23.494Z,6.70
2022-10-31T09:00:52.973Z,7.20
2022-10-31T09:03:25.670Z,7.35
2022-10-31T09:05:56.723Z,7.30
2022-10-31T09:08:23.706Z,7.47
2022-10-31T09:10:53.158Z,7.78
2022-10-31T09:13:27.862Z,7.63
2022-10-31T09:15:55.042Z,7.32
2022-10-31T09:18:24.577Z,7.47
2022-10-31T09:20:53.938Z,7.32
2022-10-31T09:23:22.988Z,7.45
2022-10-31T09:25:51.645Z,7.35
2022-10-31T09:28:21.979Z,7.90
2022-10-31T09:30:50.456Z,6.80
2022-10-31T09:33:20.680Z,6.95
2022-10-31T09:35:50.066Z,7.72
2022-10-31T09:38:20.196Z,6.93
2022-10-31T09:41:02.440Z,7.05
2022-10-31T09:43:50.937Z,6.72
2022-10-31T09:46:23.457Z,7.25
2022-10-31T09:49:05.405Z,7.15
2022-10-31T09:51:36.956Z,6.95
2022-10-31T09:54:11.656Z,6.93
2022-10-31T09:56:38.963Z,7.28
2022-10-31T09:59:12.609Z,7.28
2022-10-31T10:01:51.764Z,7.38
2022-10-31T10:04:40.274Z,6.82
2022-10-31T10:07:18.997Z,8.02
2022-10-31T10:09:46.759Z,6.65
2022-10-31T10:12:35.431Z,7.30
2022-10-31T10:15:31.031Z,7.25
2022-10-31T10:18:01.823Z,8.10
2022-10-31T10:20:32.704Z,7.20
2022-10-31T10:23:18.415Z,7.45
2022-10-31T10:25:50.468Z,6.75
2022-10-31T10:28:26.196Z,7.10
2022-10-31T10:31:04.444Z,6.93
2022-10-31T10:33:31.103Z,6.47
2022-10-31T10:36:04.882Z,6.72
2022-10-31T10:38:48.012Z,6.50
2022-10-31T10:41:18.623Z,6.57
2022-10-31T10:46:38.348Z,6.82
2022-10-31T10:49:19.046Z,6.50
2022-10-31T10:55:10.858Z,7.10
2022-10-31T10:57:47.937Z,6.78
2022-10-31T11:00:22.515Z,5.85
2022-10-31T11:02:49.562Z,6.07
2022-10-31T11:05:41.633Z,6.10
2022-10-31T11:08:08.988Z,5.93
2022-10-31T11:10:36.423Z,6.40
2022-10-31T11:13:18.439Z,5.55
2022-10-31T11:16:13.317Z,5.88
2022-10-31T11:18:46.364Z,5.60
2022-10-31T11:21:35.726Z,5.55
2022-10-31T11:24:11.426Z,5.45
2022-10-31T11:26:40.323Z,5.43
2022-10-31T11:29:22.047Z,5.60
2022-10-31T11:31:51.925Z,5.43
2022-10-31T11:34:31.914Z,5.47
2022-10-31T11:37:17.983Z,5.90
2022-10-31T11:39:54.339Z,5.22
2022-10-31T11:42:37.051Z,5.47
2022-10-31T11:45:15.043Z,5.35
2022-10-31T11:47:46.877Z,5.18
2022-10-31T11:50:21.998Z,4.80
2022-10-31T11:52:49.978Z,5.18
2022-10-31T11:55:31.410Z,5.43
2022-10-31T11:57:58.836Z,4.88
2022-10-31T12:00:32.074Z,5.18
2022-10-31T12:03:23.898Z,4.88
2022-10-31T12:06:02.789Z,5.18
2022-10-31T12:08:35.769Z,4.70
2022-10-31T12:11:05.332Z,4.85
2022-10-31T12:14:03.993Z,5.18
2022-10-31T12:16:56.014Z,4.95
2022-10-31T12:19:37.744Z,4.28
2022-10-31T12:22:10.283Z,4.78
2022-10-31T12:24:49.081Z,4.30
2022-10-31T12:27:53.445Z,4.45
2022-10-31T12:30:50.393Z,5.13
2022-10-31T12:33:22.564Z,4.38
2022-10-31T12:36:03.558Z,4.60
2022-10-31T12:38:43.975Z,4.72
2022-10-31T12:41:19.716Z,4.40
2022-10-31T12:44:03.401Z,5.22
2022-10-31T12:46:54.712Z,4.68
2022-10-31T12:49:36.471Z,4.80
2022-10-31T12:52:29.398Z,4.95
2022-10-31T12:55:05.650Z,5.18
2022-10-31T12:57:39.295Z,4.63
2022-10-31T13:00:26.502Z,5.40
2022-10-31T13:03:02.552Z,4.82
2022-10-31T13:05:38.111Z,4.43
2022-10-31T13:08:10.849Z,5.30
2022-10-31T13:10:53.432Z,4.72
2022-10-31T13:13:28.558Z,4.97
2022-10-31T13:16:01.199Z,4.47
2022-10-31T13:18:51.398Z,5.00
2022-10-31T13:21:56.144Z,5.10
2022-10-31T13:24:30.718Z,4.60
2022-10-31T13:27:02.558Z,5.07
2022-10-31T13:29:39.004Z,4.32
2022-10-31T13:32:07.010Z,4.50
2022-10-31T13:34:51.673Z,4.75
2022-10-31T13:37:30.628Z,4.90
2022-10-31T13:40:22.302Z,4.78
2022-10-31T13:43:06.293Z,4.60
2022-10-31T13:45:33.089Z,4.75
2022-10-31T13:48:15.097Z,5.10
2022-10-31T13:50:47.946Z,4.35
2022-10-31T13:53:17.718Z,4.70
2022-10-31T13:55:50.523Z,4.90
2022-10-31T13:58:28.406Z,4.70
2022-10-31T14:01:16.434Z,4.35
2022-10-31T14:06:59.529Z,4.70
2022-10-31T14:09:31.496Z,4.88
2022-10-31T14:12:15.133Z,4.53
2022-10-31T14:14:51.942Z,4.80
2022-10-31T14:17:25.965Z,4.90
2022-10-31T14:20:22.968Z,4.90
2022-10-31T14:22:52.511Z,5.07
2022-10-31T14:25:33.351Z,4.65
2022-10-31T14:28:03.860Z,4.50
2022-10-31T14:30:32.227Z,4.82
2022-10-31T14:33:13.582Z,4.78
2022-10-31T14:35:58.656Z,5.20
2022-10-31T14:38:25.312Z,5.28
2022-10-31T14:41:19.174Z,4.88
2022-10-31T14:44:06.255Z,5.30
2022-10-31T14:46:47.831Z,4.90
2022-10-31T14:50:09.709Z,4.57
2022-10-31T14:52:41.809Z,4.40
2022-10-31T14:55:13.971Z,5.07
2022-10-31T14:57:53.595Z,4.57
2022-10-31T15:00:22.461Z,5.18
2022-10-31T15:03:22.796Z,5.28
2022-10-31T15:06:02.382Z,4.60
2022-10-31T15:08:43.481Z,4.43
2022-10-31T15:11:13.052Z,4.20
2022-10-31T15:13:54.423Z,4.30
2022-10-31T15:16:26.855Z,4.88
2022-10-31T15:19:05.321Z,4.50
2022-10-31T15:21:36.030Z,4.07
2022-10-31T15:24:05.851Z,4.60
2022-10-31T15:26:38.645Z,4.78
2022-10-31T15:29:12.175Z,4.30
2022-10-31T15:31:38.892Z,4.45
2022-10-31T15:34:20.437Z,4.05
2022-10-31T15:36:51.113Z,4.45
2022-10-31T15:39:18.593Z,4.28
2022-10-31T15:41:55.101Z,4.70
2022-10-31T15:44:32.799Z,4.10
2022-10-31T15:47:20.307Z,4.65
2022-10-31T15:49:53.938Z,4.47
2022-10-31T15:52:30.075Z,4.75
2022-10-31T15:55:24.051Z,4.35
2022-10-31T15:58:05.260Z,4.90
2022-10-31T16:00:34.976Z,4.13
2022-10-31T16:03:11.316Z,4.43
2022-10-31T16:05:46.597Z,4.10
2022-10-31T16:08:33.892Z,4.53
2022-10-31T16:11:13.409Z,4.50
2022-10-31T16:14:01.308Z,4.28
2022-10-31T16:16:35.532Z,4.20
2022-10-31T16:19:05.511Z,4.30
2022-10-31T16:21:35.874Z,4.50
2022-10-31T16:24:16.360Z,4.82
2022-10-31T16:26:47.678Z,4.70
2022-10-31T16:29:44.602Z,4.38
2022-10-31T16:32:54.660Z,5.18
2022-10-31T16:35:27.442Z,4.50
2022-10-31T16:37:57.346Z,4.82
2022-10-31T16:40:26.780Z,4.80
2022-10-31T16:42:59.173Z,5.15
2022-10-31T16:45:31.045Z,4.72
2022-10-31T16:48:11.719Z,4.95
2022-10-31T16:50:38.954Z,5.22
2022-10-31T16:53:13.850Z,4.90
2022-10-31T16:58:33.064Z,4.13
2022-10-31T17:03:29.407Z,5.00
2022-10-31T17:05:56.441Z,4.60
2022-10-31T17:08:24.664Z,4.90
2022-10-31T17:10:55.524Z,5.13
2022-10-31T17:13:25.178Z,5.10
2022-10-31T17:16:03.241Z,6.82
2022-10-31T17:18:30.870Z,5.10
2022-10-31T17:20:59.923Z,6.55
2022-10-31T17:23:29.489Z,5.38
2022-10-31T17:25:57.120Z,13.65
2022-10-31T17:28:25.066Z,5.28
2022-10-31T17:30:52.047Z,5.80
2022-10-31T17:33:21.808Z,4.95
2022-10-31T17:35:49.500Z,5.55
2022-10-31T17:38:21.124Z,4.88
2022-10-31T17:40:52.323Z,4.93
2022-10-31T17:43:19.116Z,4.78
2022-10-31T17:45:48.033Z,5.03
2022-10-31T17:48:14.744Z,5.07
2022-10-31T17:50:41.775Z,5.20
2022-10-31T17:53:11.521Z,4.90
2022-10-31T17:55:38.275Z,5.68
2022-10-31T17:58:07.223Z,6.90
2022-10-31T18:00:34.407Z,5.97
2022-10-31T18:03:03.756Z,6.13
2022-10-31T18:05:31.051Z,5.28
2022-10-31T18:08:03.720Z,5.55
2022-10-31T18:10:33.553Z,5.82
2022-10-31T18:13:01.711Z,5.07
2022-10-31T18:15:31.193Z,5.10
2022-10-31T18:17:58.026Z,5.30
2022-10-31T18:20:24.836Z,5.13
2022-10-31T18:22:51.536Z,5.07
2022-10-31T18:25:18.328Z,5.45
2022-10-31T18:27:45.023Z,5.10
2022-10-31T18:30:12.034Z,4.55
2022-10-31T18:32:41.013Z,4.68
2022-10-31T18:35:07.916Z,5.22
2022-10-31T18:37:36.832Z,5.40
2022-10-31T18:40:03.803Z,5.20
2022-10-31T18:42:30.467Z,5.05
2022-10-31T18:45:06.686Z,6.28
2022-10-31T18:47:43.827Z,5.85
2022-10-31T18:50:10.907Z,5.97
2022-10-31T18:52:42.283Z,6.00
2022-10-31T18:55:09.359Z,6.32
2022-10-31T18:57:38.560Z,5.80
2022-10-31T19:00:06.759Z,5.40
2022-10-31T19:02:41.845Z,5.90
2022-10-31T19:05:08.619Z,5.93
2022-10-31T19:07:37.547Z,5.55
2022-10-31T19:10:06.724Z,5.85
2022-10-31T19:12:36.215Z,6.10
2022-10-31T19:15:06.884Z,5.97
2022-10-31T19:17:33.823Z,5.90
2022-10-31T19:20:01.052Z,6.22
2022-10-31T19:22:33.855Z,5.75
2022-10-31T19:25:07.723Z,5.75
2022-10-31T19:27:37.181Z,5.90
2022-10-31T19:30:07.454Z,6.43
2022-10-31T19:32:34.497Z,5.95
2022-10-31T19:35:01.338Z,6.00
2022-10-31T19:37:39.633Z,5.65
2022-10-31T19:40:09.039Z,5.80
2022-10-31T19:42:36.872Z,6.28
2022-10-31T19:45:07.091Z,5.68
2022-10-31T19:47:39.619Z,5.50
2022-10-31T19:50:14.114Z,6.05
2022-10-31T19:52:40.888Z,5.10
2022-10-31T19:55:13.067Z,5.20
2022-10-31T19:58:00.940Z,5.60
2022-10-31T20:00:28.915Z,6.70
2022-10-31T20:02:57.861Z,5.97
2022-10-31T20:05:27.232Z,5.53
2022-10-31T20:07:56.688Z,5.85
2022-10-31T20:10:23.840Z,5.43
2022-10-31T20:12:50.638Z,5.90
2022-10-31T20:15:17.535Z,5.70
2022-10-31T20:17:44.209Z,5.85
2022-10-31T20:20:13.528Z,6.53
2022-10-31T20:22:42.820Z,6.57
2022-10-31T20:25:09.573Z,6.03
2022-10-31T20:27:41.172Z,5.97
2022-10-31T20:30:08.656Z,5.72
2022-10-31T20:32:36.019Z,5.93
2022-10-31T20:35:02.733Z,5.65
2022-10-31T20:37:31.866Z,5.35
2022-10-31T20:39:58.584Z,5.65
2022-10-31T20:42:25.332Z,5.85
2022-10-31T20:44:52.174Z,5.72
2022-10-31T20:47:23.438Z,5.20
2022-10-31T20:49:54.946Z,5.88
2022-10-31T20:52:23.839Z,6.03
2022-10-31T20:54:50.556Z,5.82
2022-10-31T20:57:19.792Z,5.70
2022-10-31T20:59:50.001Z,6.43
2022-10-31T21:02:16.834Z,5.50
2022-10-31T21:04:43.809Z,5.70
2022-10-31T21:07:10.519Z,5.13
2022-10-31T21:09:41.894Z,5.63
2022-10-31T21:12:11.182Z,7.38
2022-10-31T21:14:37.852Z,6.28
2022-10-31T21:17:05.168Z,5.85
2022-10-31T21:19:31.819Z,5.65
2022-10-31T21:21:58.674Z,5.95
2022-10-31T21:24:27.853Z,5.93
2022-10-31T21:27:01.182Z,5.50
2022-10-31T21:29:31.480Z,5.53
2022-10-31T21:32:00.372Z,5.88
2022-10-31T21:34:27.048Z,5.90
2022-10-31T21:36:56.234Z,6.60
2022-10-31T21:39:23.005Z,6.90
2022-10-31T21:41:49.874Z,5.95
2022-10-31T21:44:16.548Z,5.85
2022-10-31T21:46:47.314Z,5.22
2022-10-31T21:49:16.466Z,5.82
2022-10-31T21:51:44.096Z,5.60
2022-10-31T21:54:28.263Z,5.28
2022-10-31T21:56:58.718Z,5.55
2022-10-31T21:59:25.737Z,5.97
2022-10-31T22:01:57.952Z,5.38
2022-10-31T22:04:24.886Z,5.60
2022-10-31T22:06:54.204Z,6.05
2022-10-31T22:09:23.163Z,5.80
2022-10-31T22:11:52.201Z,5.75
2022-10-31T22:14:21.069Z,6.20
2022-10-31T22:16:49.932Z,5.78
2022-10-31T22:19:16.722Z,5.95
2022-10-31T22:21:49.069Z,5.38
2022-10-31T22:24:21.881Z,12.30
2022-10-31T22:26:48.598Z,5.60
2022-10-31T22:29:17.356Z,5.10
2022-10-31T22:31:49.405Z,5.30
2022-10-31T22:34:25.901Z,5.50
2022-10-31T22:36:54.689Z,5.40
2022-10-31T22:39:21.492Z,5.78
2022-10-31T22:41:48.188Z,5.45
2022-10-31T22:44:17.110Z,5.55
2022-10-31T22:46:43.832Z,5.82
2022-10-31T22:49:19.175Z,6.10
2022-10-31T22:51:46.176Z,5.90
2022-10-31T22:54:17.238Z,6.70
2022-10-31T22:56:44.628Z,5.78
2022-10-31T22:59:15.420Z,5.60
2022-10-31T23:01:47.328Z,5.57
2022-10-31T23:04:16.344Z,5.20
2022-10-31T23:06:45.837Z,5.57
2022-10-31T23:09:15.403Z,5.43
2022-10-31T23:11:42.878Z,5.55
2022-10-31T23:14:18.562Z,5.90
2022-10-31T23:16:51.478Z,5.38
2022-10-31T23:19:22.456Z,5.38
2022-10-31T23:21:54.967Z,5.60
2022-10-31T23:24:47.999Z,6.15
2022-10-31T23:27:14.644Z,5.50
2022-10-31T23:29:53.393Z,5.90
2022-10-31T23:32:27.191Z,5.82
2022-10-31T23:34:55.964Z,5.47
2022-10-31T23:37:25.840Z,5.70
2022-10-31T23:39:53.277Z,5.80
2022-10-31T23:42:22.780Z,7.03
2022-10-31T23:44:50.038Z,5.55
2022-10-31T23:47:17.097Z,5.28
2022-10-31T23:49:46.132Z,5.18
2022-10-31T23:52:13.304Z,4.45
2022-10-31T23:54:42.944Z,4.65
2022-10-31T23:57:14.526Z,4.65
2022-10-31T23:59:41.508Z,5.05
